sensor_id;sensor_type;location;lat;lon;timestamp;P1;durP1;ratioP1;P2;durP2;ratioP2
18102;SDS011;9178;51.120;6.192;2023-04-07T00:01:07;32.63;;;17.23;;
18102;SDS011;9178;51.120;6.192;2023-04-07T00:03:34;30.60;;;17.93;;
18102;SDS011;9178;51.120;6.192;2023-04-07T00:06:02;31.43;;;17.40;;
18102;SDS011;9178;51.120;6.192;2023-04-07T00:08:29;27.37;;;16.53;;
18102;SDS011;9178;51.120;6.192;2023-04-07T00:10:56;34.03;;;17.60;;
18102;SDS011;9178;51.120;6.192;2023-04-07T00:13:24;29.20;;;18.33;;
18102;SDS011;9178;51.120;6.192;2023-04-07T00:15:51;29.00;;;16.77;;
18102;SDS011;9178;51.120;6.192;2023-04-07T00:18:18;31.30;;;17.20;;
18102;SDS011;9178;51.120;6.192;2023-04-07T00:20:45;28.60;;;17.37;;
18102;SDS011;9178;51.120;6.192;2023-04-07T00:23:12;27.50;;;16.43;;
18102;SDS011;9178;51.120;6.192;2023-04-07T00:25:39;36.60;;;19.30;;
18102;SDS011;9178;51.120;6.192;2023-04-07T00:28:06;34.53;;;18.97;;
18102;SDS011;9178;51.120;6.192;2023-04-07T00:30:34;29.13;;;17.97;;
18102;SDS011;9178;51.120;6.192;2023-04-07T00:33:01;33.20;;;17.67;;
18102;SDS011;9178;51.120;6.192;2023-04-07T00:35:28;34.80;;;18.77;;
18102;SDS011;9178;51.120;6.192;2023-04-07T00:37:55;29.67;;;18.03;;
18102;SDS011;9178;51.120;6.192;2023-04-07T00:40:22;29.10;;;17.07;;
18102;SDS011;9178;51.120;6.192;2023-04-07T00:42:49;31.17;;;18.13;;
18102;SDS011;9178;51.120;6.192;2023-04-07T00:45:15;31.83;;;18.13;;
18102;SDS011;9178;51.120;6.192;2023-04-07T00:47:44;33.80;;;18.87;;
18102;SDS011;9178;51.120;6.192;2023-04-07T00:50:11;34.00;;;19.33;;
18102;SDS011;9178;51.120;6.192;2023-04-07T00:52:37;32.43;;;18.90;;
18102;SDS011;9178;51.120;6.192;2023-04-07T00:55:05;37.27;;;20.07;;
18102;SDS011;9178;51.120;6.192;2023-04-07T00:57:36;33.60;;;19.23;;
18102;SDS011;9178;51.120;6.192;2023-04-07T01:00:12;32.90;;;18.37;;
18102;SDS011;9178;51.120;6.192;2023-04-07T01:02:40;32.50;;;17.97;;
18102;SDS011;9178;51.120;6.192;2023-04-07T01:05:12;38.77;;;20.00;;
18102;SDS011;9178;51.120;6.192;2023-04-07T01:07:47;29.47;;;17.63;;
18102;SDS011;9178;51.120;6.192;2023-04-07T01:10:32;38.23;;;20.10;;
18102;SDS011;9178;51.120;6.192;2023-04-07T01:13:07;44.13;;;20.07;;
18102;SDS011;9178;51.120;6.192;2023-04-07T01:15:42;35.33;;;19.03;;
18102;SDS011;9178;51.120;6.192;2023-04-07T01:18:16;36.93;;;20.20;;
18102;SDS011;9178;51.120;6.192;2023-04-07T01:20:49;35.97;;;19.20;;
18102;SDS011;9178;51.120;6.192;2023-04-07T01:23:20;41.37;;;21.53;;
18102;SDS011;9178;51.120;6.192;2023-04-07T01:26:03;42.07;;;20.43;;
18102;SDS011;9178;51.120;6.192;2023-04-07T01:31:41;43.83;;;21.10;;
18102;SDS011;9178;51.120;6.192;2023-04-07T01:34:09;52.53;;;21.97;;
18102;SDS011;9178;51.120;6.192;2023-04-07T01:36:37;44.77;;;22.07;;
18102;SDS011;9178;51.120;6.192;2023-04-07T01:39:05;45.10;;;21.70;;
18102;SDS011;9178;51.120;6.192;2023-04-07T01:41:34;44.97;;;21.93;;
18102;SDS011;9178;51.120;6.192;2023-04-07T01:44:02;39.40;;;21.67;;
18102;SDS011;9178;51.120;6.192;2023-04-07T01:46:31;50.93;;;21.87;;
18102;SDS011;9178;51.120;6.192;2023-04-07T01:49:00;61.47;;;24.13;;
18102;SDS011;9178;51.120;6.192;2023-04-07T01:51:28;43.77;;;21.40;;
18102;SDS011;9178;51.120;6.192;2023-04-07T01:53:56;44.67;;;22.97;;
18102;SDS011;9178;51.120;6.192;2023-04-07T01:56:24;44.00;;;22.53;;
18102;SDS011;9178;51.120;6.192;2023-04-07T01:58:52;49.47;;;23.30;;
18102;SDS011;9178;51.120;6.192;2023-04-07T02:01:18;50.73;;;22.63;;
18102;SDS011;9178;51.120;6.192;2023-04-07T02:03:48;42.43;;;21.87;;
18102;SDS011;9178;51.120;6.192;2023-04-07T02:06:21;48.20;;;22.07;;
18102;SDS011;9178;51.120;6.192;2023-04-07T02:08:54;42.47;;;21.77;;
18102;SDS011;9178;51.120;6.192;2023-04-07T02:11:25;44.33;;;21.13;;
18102;SDS011;9178;51.120;6.192;2023-04-07T02:13:53;55.87;;;23.07;;
18102;SDS011;9178;51.120;6.192;2023-04-07T02:16:21;42.30;;;21.67;;
18102;SDS011;9178;51.120;6.192;2023-04-07T02:18:49;47.30;;;23.00;;
18102;SDS011;9178;51.120;6.192;2023-04-07T02:21:17;44.97;;;22.00;;
18102;SDS011;9178;51.120;6.192;2023-04-07T02:23:46;50.27;;;23.03;;
18102;SDS011;9178;51.120;6.192;2023-04-07T02:26:13;44.83;;;21.37;;
18102;SDS011;9178;51.120;6.192;2023-04-07T02:28:40;43.70;;;21.17;;
18102;SDS011;9178;51.120;6.192;2023-04-07T02:31:07;41.37;;;21.37;;
18102;SDS011;9178;51.120;6.192;2023-04-07T02:33:35;38.43;;;19.83;;
18102;SDS011;9178;51.120;6.192;2023-04-07T02:36:02;40.60;;;19.97;;
18102;SDS011;9178;51.120;6.192;2023-04-07T02:38:30;37.40;;;20.27;;
18102;SDS011;9178;51.120;6.192;2023-04-07T02:40:57;39.17;;;20.27;;
18102;SDS011;9178;51.120;6.192;2023-04-07T02:43:24;39.43;;;20.17;;
18102;SDS011;9178;51.120;6.192;2023-04-07T02:45:53;41.07;;;20.43;;
18102;SDS011;9178;51.120;6.192;2023-04-07T02:48:22;39.87;;;20.13;;
18102;SDS011;9178;51.120;6.192;2023-04-07T02:50:49;34.37;;;18.60;;
18102;SDS011;9178;51.120;6.192;2023-04-07T02:53:16;39.23;;;20.30;;
18102;SDS011;9178;51.120;6.192;2023-04-07T02:55:44;41.70;;;20.67;;
18102;SDS011;9178;51.120;6.192;2023-04-07T02:58:21;35.50;;;19.77;;
18102;SDS011;9178;51.120;6.192;2023-04-07T03:00:48;34.73;;;19.70;;
18102;SDS011;9178;51.120;6.192;2023-04-07T03:03:15;38.90;;;19.87;;
18102;SDS011;9178;51.120;6.192;2023-04-07T03:05:42;30.57;;;17.73;;
18102;SDS011;9178;51.120;6.192;2023-04-07T03:08:11;35.17;;;19.43;;
18102;SDS011;9178;51.120;6.192;2023-04-07T03:10:38;32.93;;;18.30;;
18102;SDS011;9178;51.120;6.192;2023-04-07T03:13:06;36.17;;;19.73;;
18102;SDS011;9178;51.120;6.192;2023-04-07T03:15:36;36.23;;;18.83;;
18102;SDS011;9178;51.120;6.192;2023-04-07T03:18:03;36.27;;;19.77;;
18102;SDS011;9178;51.120;6.192;2023-04-07T03:20:30;29.67;;;17.97;;
18102;SDS011;9178;51.120;6.192;2023-04-07T03:23:02;33.00;;;18.53;;
18102;SDS011;9178;51.120;6.192;2023-04-07T03:25:29;34.63;;;18.43;;
18102;SDS011;9178;51.120;6.192;2023-04-07T03:27:56;30.07;;;17.90;;
18102;SDS011;9178;51.120;6.192;2023-04-07T03:30:26;31.90;;;17.93;;
18102;SDS011;9178;51.120;6.192;2023-04-07T03:32:53;31.00;;;17.90;;
18102;SDS011;9178;51.120;6.192;2023-04-07T03:35:20;27.70;;;16.93;;
18102;SDS011;9178;51.120;6.192;2023-04-07T03:37:47;28.77;;;17.03;;
18102;SDS011;9178;51.120;6.192;2023-04-07T03:40:15;29.73;;;17.87;;
18102;SDS011;9178;51.120;6.192;2023-04-07T03:42:42;40.20;;;18.77;;
18102;SDS011;9178;51.120;6.192;2023-04-07T03:45:09;32.30;;;17.30;;
18102;SDS011;9178;51.120;6.192;2023-04-07T03:47:38;34.37;;;18.80;;
18102;SDS011;9178;51.120;6.192;2023-04-07T03:50:05;29.13;;;16.97;;
18102;SDS011;9178;51.120;6.192;2023-04-07T03:52:33;32.30;;;18.40;;
18102;SDS011;9178;51.120;6.192;2023-04-07T03:55:00;29.60;;;18.27;;
18102;SDS011;9178;51.120;6.192;2023-04-07T03:57:29;25.50;;;16.00;;
18102;SDS011;9178;51.120;6.192;2023-04-07T03:59:56;25.30;;;16.87;;
18102;SDS011;9178;51.120;6.192;2023-04-07T04:02:22;25.37;;;16.20;;
18102;SDS011;9178;51.120;6.192;2023-04-07T04:04:51;28.37;;;15.87;;
18102;SDS011;9178;51.120;6.192;2023-04-07T04:07:17;25.73;;;16.60;;
18102;SDS011;9178;51.120;6.192;2023-04-07T04:09:44;29.00;;;17.83;;
18102;SDS011;9178;51.120;6.192;2023-04-07T04:12:11;29.30;;;18.43;;
18102;SDS011;9178;51.120;6.192;2023-04-07T04:14:40;29.07;;;17.63;;
18102;SDS011;9178;51.120;6.192;2023-04-07T04:17:08;25.57;;;15.97;;
18102;SDS011;9178;51.120;6.192;2023-04-07T04:19:35;26.90;;;17.07;;
18102;SDS011;9178;51.120;6.192;2023-04-07T04:22:03;27.57;;;16.83;;
18102;SDS011;9178;51.120;6.192;2023-04-07T04:24:30;30.43;;;16.87;;
18102;SDS011;9178;51.120;6.192;2023-04-07T04:26:57;29.53;;;17.83;;
18102;SDS011;9178;51.120;6.192;2023-04-07T04:29:24;28.67;;;17.03;;
18102;SDS011;9178;51.120;6.192;2023-04-07T04:31:51;31.57;;;17.53;;
18102;SDS011;9178;51.120;6.192;2023-04-07T04:34:18;29.73;;;16.77;;
18102;SDS011;9178;51.120;6.192;2023-04-07T04:36:46;27.57;;;16.60;;
18102;SDS011;9178;51.120;6.192;2023-04-07T04:39:15;25.90;;;14.07;;
18102;SDS011;9178;51.120;6.192;2023-04-07T04:41:42;18.43;;;12.80;;
18102;SDS011;9178;51.120;6.192;2023-04-07T04:44:09;16.80;;;10.97;;
18102;SDS011;9178;51.120;6.192;2023-04-07T04:46:36;14.17;;;10.27;;
18102;SDS011;9178;51.120;6.192;2023-04-07T04:49:03;13.80;;;8.40;;
18102;SDS011;9178;51.120;6.192;2023-04-07T04:51:30;12.90;;;8.37;;
18102;SDS011;9178;51.120;6.192;2023-04-07T04:54:00;13.13;;;7.63;;
18102;SDS011;9178;51.120;6.192;2023-04-07T04:56:31;11.23;;;7.03;;
18102;SDS011;9178;51.120;6.192;2023-04-07T04:58:58;10.47;;;6.60;;
18102;SDS011;9178;51.120;6.192;2023-04-07T05:01:26;9.73;;;6.13;;
18102;SDS011;9178;51.120;6.192;2023-04-07T05:03:56;8.50;;;6.27;;
18102;SDS011;9178;51.120;6.192;2023-04-07T05:06:23;11.57;;;6.43;;
18102;SDS011;9178;51.120;6.192;2023-04-07T05:08:51;11.63;;;6.67;;
18102;SDS011;9178;51.120;6.192;2023-04-07T05:11:18;11.97;;;6.57;;
18102;SDS011;9178;51.120;6.192;2023-04-07T05:13:47;9.53;;;6.87;;
18102;SDS011;9178;51.120;6.192;2023-04-07T05:16:15;9.03;;;6.17;;
18102;SDS011;9178;51.120;6.192;2023-04-07T05:18:42;8.53;;;6.03;;
18102;SDS011;9178;51.120;6.192;2023-04-07T05:21:09;10.37;;;6.63;;
18102;SDS011;9178;51.120;6.192;2023-04-07T05:23:37;8.50;;;5.83;;
18102;SDS011;9178;51.120;6.192;2023-04-07T05:26:04;9.27;;;6.00;;
18102;SDS011;9178;51.120;6.192;2023-04-07T05:28:34;9.20;;;6.03;;
18102;SDS011;9178;51.120;6.192;2023-04-07T05:31:02;9.40;;;6.40;;
18102;SDS011;9178;51.120;6.192;2023-04-07T05:33:29;11.80;;;6.63;;
18102;SDS011;9178;51.120;6.192;2023-04-07T05:35:56;11.37;;;6.23;;
18102;SDS011;9178;51.120;6.192;2023-04-07T05:38:23;9.43;;;6.13;;
18102;SDS011;9178;51.120;6.192;2023-04-07T05:40:50;11.17;;;6.30;;
18102;SDS011;9178;51.120;6.192;2023-04-07T05:43:18;11.20;;;6.67;;
18102;SDS011;9178;51.120;6.192;2023-04-07T05:45:45;9.23;;;6.03;;
18102;SDS011;9178;51.120;6.192;2023-04-07T05:48:14;9.73;;;5.97;;
18102;SDS011;9178;51.120;6.192;2023-04-07T05:50:43;8.37;;;5.90;;
18102;SDS011;9178;51.120;6.192;2023-04-07T05:53:09;10.60;;;7.23;;
18102;SDS011;9178;51.120;6.192;2023-04-07T05:55:37;11.00;;;6.37;;
18102;SDS011;9178;51.120;6.192;2023-04-07T05:58:03;9.17;;;6.73;;
18102;SDS011;9178;51.120;6.192;2023-04-07T06:00:30;11.23;;;6.20;;
18102;SDS011;9178;51.120;6.192;2023-04-07T06:02:57;10.60;;;6.30;;
18102;SDS011;9178;51.120;6.192;2023-04-07T06:05:27;12.07;;;6.47;;
18102;SDS011;9178;51.120;6.192;2023-04-07T06:07:54;11.27;;;6.53;;
18102;SDS011;9178;51.120;6.192;2023-04-07T06:10:21;12.47;;;7.63;;
18102;SDS011;9178;51.120;6.192;2023-04-07T06:12:49;10.43;;;7.03;;
18102;SDS011;9178;51.120;6.192;2023-04-07T06:15:16;11.93;;;6.87;;
18102;SDS011;9178;51.120;6.192;2023-04-07T06:17:43;10.93;;;6.87;;
18102;SDS011;9178;51.120;6.192;2023-04-07T06:20:10;11.10;;;6.57;;
18102;SDS011;9178;51.120;6.192;2023-04-07T06:22:43;11.40;;;7.17;;
18102;SDS011;9178;51.120;6.192;2023-04-07T06:25:10;9.40;;;6.47;;
18102;SDS011;9178;51.120;6.192;2023-04-07T06:27:37;8.53;;;6.27;;
18102;SDS011;9178;51.120;6.192;2023-04-07T06:30:04;10.60;;;6.20;;
18102;SDS011;9178;51.120;6.192;2023-04-07T06:32:32;10.97;;;6.90;;
18102;SDS011;9178;51.120;6.192;2023-04-07T06:34:59;11.70;;;6.60;;
18102;SDS011;9178;51.120;6.192;2023-04-07T06:37:26;11.93;;;6.63;;
18102;SDS011;9178;51.120;6.192;2023-04-07T06:40:08;10.30;;;5.70;;
18102;SDS011;9178;51.120;6.192;2023-04-07T06:42:35;13.47;;;6.57;;
18102;SDS011;9178;51.120;6.192;2023-04-07T06:45:02;8.93;;;5.80;;
18102;SDS011;9178;51.120;6.192;2023-04-07T06:47:29;9.50;;;6.30;;
18102;SDS011;9178;51.120;6.192;2023-04-07T06:49:57;10.30;;;6.57;;
18102;SDS011;9178;51.120;6.192;2023-04-07T06:52:23;11.37;;;6.80;;
18102;SDS011;9178;51.120;6.192;2023-04-07T06:54:50;10.60;;;6.30;;
18102;SDS011;9178;51.120;6.192;2023-04-07T06:57:18;11.80;;;6.50;;
18102;SDS011;9178;51.120;6.192;2023-04-07T06:59:46;12.37;;;6.30;;
18102;SDS011;9178;51.120;6.192;2023-04-07T07:02:14;12.77;;;6.97;;
18102;SDS011;9178;51.120;6.192;2023-04-07T07:04:40;12.83;;;6.57;;
18102;SDS011;9178;51.120;6.192;2023-04-07T07:07:07;11.13;;;6.53;;
18102;SDS011;9178;51.120;6.192;2023-04-07T07:09:34;11.10;;;6.57;;
18102;SDS011;9178;51.120;6.192;2023-04-07T07:12:01;10.10;;;6.67;;
18102;SDS011;9178;51.120;6.192;2023-04-07T07:14:29;11.30;;;6.90;;
18102;SDS011;9178;51.120;6.192;2023-04-07T07:16:56;11.23;;;7.67;;
18102;SDS011;9178;51.120;6.192;2023-04-07T07:19:23;12.03;;;6.97;;
18102;SDS011;9178;51.120;6.192;2023-04-07T07:21:50;15.17;;;7.50;;
18102;SDS011;9178;51.120;6.192;2023-04-07T07:24:16;14.30;;;7.83;;
18102;SDS011;9178;51.120;6.192;2023-04-07T07:26:43;17.10;;;7.87;;
18102;SDS011;9178;51.120;6.192;2023-04-07T07:29:10;15.93;;;9.30;;
18102;SDS011;9178;51.120;6.192;2023-04-07T07:31:38;14.47;;;8.63;;
18102;SDS011;9178;51.120;6.192;2023-04-07T07:34:05;16.60;;;9.63;;
18102;SDS011;9178;51.120;6.192;2023-04-07T07:36:32;15.80;;;9.60;;
18102;SDS011;9178;51.120;6.192;2023-04-07T07:38:59;19.17;;;9.83;;
18102;SDS011;9178;51.120;6.192;2023-04-07T07:41:26;20.13;;;10.33;;
18102;SDS011;9178;51.120;6.192;2023-04-07T07:43:52;18.17;;;10.13;;
18102;SDS011;9178;51.120;6.192;2023-04-07T07:46:19;19.47;;;10.17;;
18102;SDS011;9178;51.120;6.192;2023-04-07T07:48:49;20.60;;;10.90;;
18102;SDS011;9178;51.120;6.192;2023-04-07T07:51:16;22.93;;;11.70;;
18102;SDS011;9178;51.120;6.192;2023-04-07T07:53:43;21.93;;;10.83;;
18102;SDS011;9178;51.120;6.192;2023-04-07T07:56:10;19.57;;;11.33;;
18102;SDS011;9178;51.120;6.192;2023-04-07T07:58:37;17.83;;;10.47;;
18102;SDS011;9178;51.120;6.192;2023-04-07T08:01:04;22.37;;;11.50;;
18102;SDS011;9178;51.120;6.192;2023-04-07T08:03:30;17.47;;;11.50;;
18102;SDS011;9178;51.120;6.192;2023-04-07T08:05:59;25.07;;;12.67;;
18102;SDS011;9178;51.120;6.192;2023-04-07T08:08:26;22.90;;;12.70;;
18102;SDS011;9178;51.120;6.192;2023-04-07T08:10:52;25.03;;;12.37;;
18102;SDS011;9178;51.120;6.192;2023-04-07T08:13:19;24.97;;;13.20;;
18102;SDS011;9178;51.120;6.192;2023-04-07T08:15:46;23.73;;;12.97;;
18102;SDS011;9178;51.120;6.192;2023-04-07T08:18:13;22.73;;;13.03;;
18102;SDS011;9178;51.120;6.192;2023-04-07T08:20:40;25.17;;;14.03;;
18102;SDS011;9178;51.120;6.192;2023-04-07T08:23:08;29.13;;;14.13;;
18102;SDS011;9178;51.120;6.192;2023-04-07T08:25:35;29.70;;;14.70;;
18102;SDS011;9178;51.120;6.192;2023-04-07T08:28:04;22.90;;;13.80;;
18102;SDS011;9178;51.120;6.192;2023-04-07T08:30:31;23.33;;;13.30;;
18102;SDS011;9178;51.120;6.192;2023-04-07T08:33:04;23.03;;;13.20;;
18102;SDS011;9178;51.120;6.192;2023-04-07T08:35:31;23.27;;;14.23;;
18102;SDS011;9178;51.120;6.192;2023-04-07T08:37:58;24.23;;;13.87;;
18102;SDS011;9178;51.120;6.192;2023-04-07T08:40:28;24.60;;;14.10;;
18102;SDS011;9178;51.120;6.192;2023-04-07T08:42:55;28.17;;;14.50;;
18102;SDS011;9178;51.120;6.192;2023-04-07T08:45:25;25.37;;;14.00;;
18102;SDS011;9178;51.120;6.192;2023-04-07T08:47:54;24.27;;;14.00;;
18102;SDS011;9178;51.120;6.192;2023-04-07T08:50:21;22.33;;;12.93;;
18102;SDS011;9178;51.120;6.192;2023-04-07T08:52:53;24.83;;;14.07;;
18102;SDS011;9178;51.120;6.192;2023-04-07T08:55:21;24.67;;;12.77;;
18102;SDS011;9178;51.120;6.192;2023-04-07T08:57:49;25.37;;;13.07;;
18102;SDS011;9178;51.120;6.192;2023-04-07T09:00:18;25.13;;;13.23;;
18102;SDS011;9178;51.120;6.192;2023-04-07T09:02:45;23.20;;;12.73;;
18102;SDS011;9178;51.120;6.192;2023-04-07T09:05:15;21.67;;;12.17;;
18102;SDS011;9178;51.120;6.192;2023-04-07T09:07:42;21.83;;;12.90;;
18102;SDS011;9178;51.120;6.192;2023-04-07T09:10:09;24.67;;;12.10;;
18102;SDS011;9178;51.120;6.192;2023-04-07T09:12:37;22.33;;;12.53;;
18102;SDS011;9178;51.120;6.192;2023-04-07T09:15:06;22.10;;;13.13;;
18102;SDS011;9178;51.120;6.192;2023-04-07T09:17:34;21.77;;;12.17;;
18102;SDS011;9178;51.120;6.192;2023-04-07T09:20:01;19.87;;;11.47;;
18102;SDS011;9178;51.120;6.192;2023-04-07T09:22:35;19.37;;;11.57;;
18102;SDS011;9178;51.120;6.192;2023-04-07T09:25:10;19.93;;;11.60;;
18102;SDS011;9178;51.120;6.192;2023-04-07T09:27:38;18.43;;;10.93;;
18102;SDS011;9178;51.120;6.192;2023-04-07T09:30:13;21.60;;;11.17;;
18102;SDS011;9178;51.120;6.192;2023-04-07T09:32:40;18.27;;;10.00;;
18102;SDS011;9178;51.120;6.192;2023-04-07T09:35:08;17.03;;;10.97;;
18102;SDS011;9178;51.120;6.192;2023-04-07T09:37:35;16.77;;;10.50;;
18102;SDS011;9178;51.120;6.192;2023-04-07T09:40:05;16.30;;;9.33;;
18102;SDS011;9178;51.120;6.192;2023-04-07T09:42:32;18.03;;;9.60;;
18102;SDS011;9178;51.120;6.192;2023-04-07T09:45:02;16.00;;;9.47;;
18102;SDS011;9178;51.120;6.192;2023-04-07T09:47:30;15.50;;;9.70;;
18102;SDS011;9178;51.120;6.192;2023-04-07T09:49:57;15.57;;;10.20;;
18102;SDS011;9178;51.120;6.192;2023-04-07T09:55:16;16.60;;;10.40;;
18102;SDS011;9178;51.120;6.192;2023-04-07T09:57:45;16.20;;;10.23;;
18102;SDS011;9178;51.120;6.192;2023-04-07T10:00:14;14.17;;;9.73;;
18102;SDS011;9178;51.120;6.192;2023-04-07T10:02:43;15.30;;;9.23;;
18102;SDS011;9178;51.120;6.192;2023-04-07T10:05:10;17.53;;;10.43;;
18102;SDS011;9178;51.120;6.192;2023-04-07T10:07:37;15.70;;;10.13;;
18102;SDS011;9178;51.120;6.192;2023-04-07T10:10:08;16.33;;;10.00;;
18102;SDS011;9178;51.120;6.192;2023-04-07T10:12:36;16.47;;;9.33;;
18102;SDS011;9178;51.120;6.192;2023-04-07T10:15:03;15.43;;;9.50;;
18102;SDS011;9178;51.120;6.192;2023-04-07T10:17:31;14.97;;;9.83;;
18102;SDS011;9178;51.120;6.192;2023-04-07T10:20:00;13.03;;;9.67;;
18102;SDS011;9178;51.120;6.192;2023-04-07T10:22:29;14.97;;;9.63;;
18102;SDS011;9178;51.120;6.192;2023-04-07T10:24:59;18.57;;;9.80;;
18102;SDS011;9178;51.120;6.192;2023-04-07T10:27:31;14.43;;;9.07;;
18102;SDS011;9178;51.120;6.192;2023-04-07T10:30:01;13.40;;;9.57;;
18102;SDS011;9178;51.120;6.192;2023-04-07T10:32:30;14.27;;;8.87;;
18102;SDS011;9178;51.120;6.192;2023-04-07T10:34:57;14.53;;;8.50;;
18102;SDS011;9178;51.120;6.192;2023-04-07T10:37:26;10.17;;;7.53;;
18102;SDS011;9178;51.120;6.192;2023-04-07T10:42:54;8.60;;;6.93;;
18102;SDS011;9178;51.120;6.192;2023-04-07T10:48:19;8.27;;;6.73;;
18102;SDS011;9178;51.120;6.192;2023-04-07T10:51:10;9.03;;;7.17;;
18102;SDS011;9178;51.120;6.192;2023-04-07T10:59:36;9.20;;;6.03;;
18102;SDS011;9178;51.120;6.192;2023-04-07T11:04:57;11.07;;;5.90;;
18102;SDS011;9178;51.120;6.192;2023-04-07T11:10:11;9.13;;;5.57;;
18102;SDS011;9178;51.120;6.192;2023-04-07T11:12:39;7.37;;;6.00;;
18102;SDS011;9178;51.120;6.192;2023-04-07T11:15:16;8.63;;;5.60;;
18102;SDS011;9178;51.120;6.192;2023-04-07T11:20:39;6.10;;;5.20;;
18102;SDS011;9178;51.120;6.192;2023-04-07T11:23:08;7.67;;;5.23;;
18102;SDS011;9178;51.120;6.192;2023-04-07T11:25:36;6.40;;;5.30;;
18102;SDS011;9178;51.120;6.192;2023-04-07T11:28:03;8.23;;;5.13;;
18102;SDS011;9178;51.120;6.192;2023-04-07T11:30:30;8.57;;;4.90;;
18102;SDS011;9178;51.120;6.192;2023-04-07T11:32:57;5.77;;;4.90;;
18102;SDS011;9178;51.120;6.192;2023-04-07T11:35:24;6.30;;;4.57;;
18102;SDS011;9178;51.120;6.192;2023-04-07T11:37:56;6.63;;;4.80;;
18102;SDS011;9178;51.120;6.192;2023-04-07T11:40:31;6.43;;;4.80;;
18102;SDS011;9178;51.120;6.192;2023-04-07T11:42:59;4.30;;;3.90;;
18102;SDS011;9178;51.120;6.192;2023-04-07T11:45:27;5.70;;;4.43;;
18102;SDS011;9178;51.120;6.192;2023-04-07T11:47:54;5.73;;;4.80;;
18102;SDS011;9178;51.120;6.192;2023-04-07T11:50:39;5.77;;;4.70;;
18102;SDS011;9178;51.120;6.192;2023-04-07T11:53:07;7.77;;;4.10;;
18102;SDS011;9178;51.120;6.192;2023-04-07T11:55:36;5.13;;;4.27;;
18102;SDS011;9178;51.120;6.192;2023-04-07T11:58:06;7.40;;;4.20;;
18102;SDS011;9178;51.120;6.192;2023-04-07T12:00:34;7.57;;;4.60;;
18102;SDS011;9178;51.120;6.192;2023-04-07T12:03:09;6.97;;;4.80;;
18102;SDS011;9178;51.120;6.192;2023-04-07T12:05:44;10.40;;;6.00;;
18102;SDS011;9178;51.120;6.192;2023-04-07T12:08:12;11.00;;;6.20;;
18102;SDS011;9178;51.120;6.192;2023-04-07T12:10:40;11.07;;;6.03;;
18102;SDS011;9178;51.120;6.192;2023-04-07T12:13:07;8.10;;;5.87;;
18102;SDS011;9178;51.120;6.192;2023-04-07T12:15:35;9.13;;;5.90;;
18102;SDS011;9178;51.120;6.192;2023-04-07T12:18:01;10.33;;;5.60;;
18102;SDS011;9178;51.120;6.192;2023-04-07T12:20:31;9.20;;;5.57;;
18102;SDS011;9178;51.120;6.192;2023-04-07T12:22:58;9.00;;;5.63;;
18102;SDS011;9178;51.120;6.192;2023-04-07T12:25:25;9.50;;;5.30;;
18102;SDS011;9178;51.120;6.192;2023-04-07T12:27:54;6.83;;;5.50;;
18102;SDS011;9178;51.120;6.192;2023-04-07T12:30:22;8.53;;;5.17;;
18102;SDS011;9178;51.120;6.192;2023-04-07T12:32:51;6.23;;;4.83;;
18102;SDS011;9178;51.120;6.192;2023-04-07T12:35:18;5.87;;;4.77;;
18102;SDS011;9178;51.120;6.192;2023-04-07T12:37:45;7.60;;;5.17;;
18102;SDS011;9178;51.120;6.192;2023-04-07T12:40:12;8.80;;;5.57;;
18102;SDS011;9178;51.120;6.192;2023-04-07T12:42:40;6.50;;;4.77;;
18102;SDS011;9178;51.120;6.192;2023-04-07T12:45:08;8.00;;;4.63;;
18102;SDS011;9178;51.120;6.192;2023-04-07T12:47:35;9.93;;;5.00;;
18102;SDS011;9178;51.120;6.192;2023-04-07T12:50:02;7.67;;;4.83;;
18102;SDS011;9178;51.120;6.192;2023-04-07T12:52:29;7.93;;;4.90;;
18102;SDS011;9178;51.120;6.192;2023-04-07T12:54:56;10.50;;;4.80;;
18102;SDS011;9178;51.120;6.192;2023-04-07T12:57:24;6.70;;;4.60;;
18102;SDS011;9178;51.120;6.192;2023-04-07T12:59:51;8.23;;;4.57;;
18102;SDS011;9178;51.120;6.192;2023-04-07T13:02:19;6.27;;;4.47;;
18102;SDS011;9178;51.120;6.192;2023-04-07T13:04:46;5.93;;;3.83;;
18102;SDS011;9178;51.120;6.192;2023-04-07T13:07:13;4.90;;;3.63;;
18102;SDS011;9178;51.120;6.192;2023-04-07T13:09:40;6.33;;;3.73;;
18102;SDS011;9178;51.120;6.192;2023-04-07T13:12:08;8.80;;;3.60;;
18102;SDS011;9178;51.120;6.192;2023-04-07T13:14:36;5.50;;;3.90;;
18102;SDS011;9178;51.120;6.192;2023-04-07T13:17:03;5.50;;;3.60;;
18102;SDS011;9178;51.120;6.192;2023-04-07T13:19:32;7.57;;;3.83;;
18102;SDS011;9178;51.120;6.192;2023-04-07T13:21:59;4.37;;;3.63;;
18102;SDS011;9178;51.120;6.192;2023-04-07T13:24:27;5.97;;;3.50;;
18102;SDS011;9178;51.120;6.192;2023-04-07T13:26:53;5.37;;;3.50;;
18102;SDS011;9178;51.120;6.192;2023-04-07T13:29:21;5.30;;;4.10;;
18102;SDS011;9178;51.120;6.192;2023-04-07T13:31:48;5.13;;;3.87;;
18102;SDS011;9178;51.120;6.192;2023-04-07T13:34:15;6.87;;;3.33;;
18102;SDS011;9178;51.120;6.192;2023-04-07T13:36:44;7.07;;;3.33;;
18102;SDS011;9178;51.120;6.192;2023-04-07T13:39:10;5.27;;;2.90;;
18102;SDS011;9178;51.120;6.192;2023-04-07T13:41:37;11.60;;;2.80;;
18102;SDS011;9178;51.120;6.192;2023-04-07T13:44:04;5.37;;;2.50;;
18102;SDS011;9178;51.120;6.192;2023-04-07T13:46:31;5.27;;;2.33;;
18102;SDS011;9178;51.120;6.192;2023-04-07T13:48:57;7.23;;;2.83;;
18102;SDS011;9178;51.120;6.192;2023-04-07T13:51:24;5.90;;;2.90;;
18102;SDS011;9178;51.120;6.192;2023-04-07T13:53:53;6.87;;;3.07;;
18102;SDS011;9178;51.120;6.192;2023-04-07T13:56:20;8.03;;;3.47;;
18102;SDS011;9178;51.120;6.192;2023-04-07T13:58:47;6.77;;;2.87;;
18102;SDS011;9178;51.120;6.192;2023-04-07T14:01:14;4.90;;;3.10;;
18102;SDS011;9178;51.120;6.192;2023-04-07T14:03:42;7.87;;;3.40;;
18102;SDS011;9178;51.120;6.192;2023-04-07T14:06:09;5.87;;;3.00;;
18102;SDS011;9178;51.120;6.192;2023-04-07T14:08:36;7.10;;;3.50;;
18102;SDS011;9178;51.120;6.192;2023-04-07T14:11:04;4.90;;;3.33;;
18102;SDS011;9178;51.120;6.192;2023-04-07T14:13:33;6.80;;;3.50;;
18102;SDS011;9178;51.120;6.192;2023-04-07T14:16:00;7.50;;;3.60;;
18102;SDS011;9178;51.120;6.192;2023-04-07T14:18:27;7.20;;;3.47;;
18102;SDS011;9178;51.120;6.192;2023-04-07T14:20:54;5.80;;;3.40;;
18102;SDS011;9178;51.120;6.192;2023-04-07T14:23:21;6.23;;;3.30;;
18102;SDS011;9178;51.120;6.192;2023-04-07T14:25:48;5.20;;;3.30;;
18102;SDS011;9178;51.120;6.192;2023-04-07T14:28:16;8.63;;;3.60;;
18102;SDS011;9178;51.120;6.192;2023-04-07T14:30:43;7.10;;;3.30;;
18102;SDS011;9178;51.120;6.192;2023-04-07T14:33:11;5.97;;;2.87;;
18102;SDS011;9178;51.120;6.192;2023-04-07T14:35:38;3.53;;;3.10;;
18102;SDS011;9178;51.120;6.192;2023-04-07T14:38:04;5.57;;;3.17;;
18102;SDS011;9178;51.120;6.192;2023-04-07T14:40:31;4.43;;;3.07;;
18102;SDS011;9178;51.120;6.192;2023-04-07T14:42:58;6.37;;;3.67;;
18102;SDS011;9178;51.120;6.192;2023-04-07T14:45:27;6.53;;;3.30;;
18102;SDS011;9178;51.120;6.192;2023-04-07T14:47:54;4.83;;;3.00;;
18102;SDS011;9178;51.120;6.192;2023-04-07T14:50:21;4.70;;;3.00;;
18102;SDS011;9178;51.120;6.192;2023-04-07T14:52:48;5.37;;;3.00;;
18102;SDS011;9178;51.120;6.192;2023-04-07T14:55:15;6.63;;;3.07;;
18102;SDS011;9178;51.120;6.192;2023-04-07T14:57:42;6.27;;;3.80;;
18102;SDS011;9178;51.120;6.192;2023-04-07T15:00:09;5.57;;;3.10;;
18102;SDS011;9178;51.120;6.192;2023-04-07T15:02:38;7.03;;;3.43;;
18102;SDS011;9178;51.120;6.192;2023-04-07T15:05:05;6.77;;;3.27;;
18102;SDS011;9178;51.120;6.192;2023-04-07T15:07:32;7.53;;;3.27;;
18102;SDS011;9178;51.120;6.192;2023-04-07T15:09:59;6.33;;;3.50;;
18102;SDS011;9178;51.120;6.192;2023-04-07T15:12:26;8.13;;;3.40;;
18102;SDS011;9178;51.120;6.192;2023-04-07T15:14:55;6.43;;;2.67;;
18102;SDS011;9178;51.120;6.192;2023-04-07T15:17:22;5.50;;;3.20;;